sensor_id;sensor_type;location;lat;lon;timestamp;P1;durP1;ratioP1;P2;durP2;ratioP2
65751;SDS011;52486;51.098;13.770;2022-08-21T00:01:26;1.80;;;1.70;;
65751;SDS011;52486;51.098;13.770;2022-08-21T00:03:53;1.83;;;1.73;;
65751;SDS011;52486;51.098;13.770;2022-08-21T00:06:20;1.90;;;1.80;;
65751;SDS011;52486;51.098;13.770;2022-08-21T00:08:46;1.60;;;1.50;;
65751;SDS011;52486;51.098;13.770;2022-08-21T00:11:14;1.70;;;1.60;;
65751;SDS011;52486;51.098;13.770;2022-08-21T00:13:40;2.17;;;2.08;;
65751;SDS011;52486;51.098;13.770;2022-08-21T00:16:06;2.03;;;1.92;;
65751;SDS011;52486;51.098;13.770;2022-08-21T00:18:32;1.67;;;1.58;;
65751;SDS011;52486;51.098;13.770;2022-08-21T00:20:58;1.67;;;1.58;;
65751;SDS011;52486;51.098;13.770;2022-08-21T00:23:25;1.83;;;1.73;;
65751;SDS011;52486;51.098;13.770;2022-08-21T00:25:51;1.92;;;1.80;;
65751;SDS011;52486;51.098;13.770;2022-08-21T00:28:17;1.75;;;1.65;;
65751;SDS011;52486;51.098;13.770;2022-08-21T00:30:43;2.20;;;2.10;;
65751;SDS011;52486;51.098;13.770;2022-08-21T00:33:10;2.00;;;1.90;;
65751;SDS011;52486;51.098;13.770;2022-08-21T00:35:37;1.67;;;1.58;;
65751;SDS011;52486;51.098;13.770;2022-08-21T00:38:04;1.83;;;1.73;;
65751;SDS011;52486;51.098;13.770;2022-08-21T00:40:34;2.58;;;1.83;;
65751;SDS011;52486;51.098;13.770;2022-08-21T00:43:05;1.73;;;1.63;;
65751;SDS011;52486;51.098;13.770;2022-08-21T00:45:32;1.77;;;1.67;;
65751;SDS011;52486;51.098;13.770;2022-08-21T00:47:58;1.90;;;1.80;;
65751;SDS011;52486;51.098;13.770;2022-08-21T00:50:25;1.80;;;1.70;;
65751;SDS011;52486;51.098;13.770;2022-08-21T00:52:52;2.00;;;1.90;;
65751;SDS011;52486;51.098;13.770;2022-08-21T00:55:19;1.60;;;1.50;;
65751;SDS011;52486;51.098;13.770;2022-08-21T00:57:47;1.88;;;1.77;;
65751;SDS011;52486;51.098;13.770;2022-08-21T01:00:16;1.92;;;1.83;;
65751;SDS011;52486;51.098;13.770;2022-08-21T01:02:44;1.80;;;1.70;;
65751;SDS011;52486;51.098;13.770;2022-08-21T01:05:10;1.92;;;1.83;;
65751;SDS011;52486;51.098;13.770;2022-08-21T01:07:37;1.70;;;1.60;;
65751;SDS011;52486;51.098;13.770;2022-08-21T01:10:04;1.65;;;1.55;;
65751;SDS011;52486;51.098;13.770;2022-08-21T01:12:30;1.67;;;1.58;;
65751;SDS011;52486;51.098;13.770;2022-08-21T01:14:56;1.90;;;1.80;;
65751;SDS011;52486;51.098;13.770;2022-08-21T01:17:23;1.65;;;1.55;;
65751;SDS011;52486;51.098;13.770;2022-08-21T01:19:49;2.00;;;1.80;;
65751;SDS011;52486;51.098;13.770;2022-08-21T01:22:16;1.75;;;1.65;;
65751;SDS011;52486;51.098;13.770;2022-08-21T01:24:42;2.13;;;1.95;;
65751;SDS011;52486;51.098;13.770;2022-08-21T01:27:08;1.70;;;1.60;;
65751;SDS011;52486;51.098;13.770;2022-08-21T01:29:50;1.85;;;1.75;;
65751;SDS011;52486;51.098;13.770;2022-08-21T01:32:17;1.77;;;1.67;;
65751;SDS011;52486;51.098;13.770;2022-08-21T01:34:45;1.83;;;1.73;;
65751;SDS011;52486;51.098;13.770;2022-08-21T01:37:12;1.67;;;1.58;;
65751;SDS011;52486;51.098;13.770;2022-08-21T01:39:39;1.63;;;1.52;;
65751;SDS011;52486;51.098;13.770;2022-08-21T01:42:05;1.80;;;1.70;;
65751;SDS011;52486;51.098;13.770;2022-08-21T01:44:31;1.80;;;1.70;;
65751;SDS011;52486;51.098;13.770;2022-08-21T01:46:58;1.85;;;1.75;;
65751;SDS011;52486;51.098;13.770;2022-08-21T01:49:24;1.80;;;1.70;;
65751;SDS011;52486;51.098;13.770;2022-08-21T01:51:50;1.70;;;1.60;;
65751;SDS011;52486;51.098;13.770;2022-08-21T01:54:17;1.88;;;1.77;;
65751;SDS011;52486;51.098;13.770;2022-08-21T01:56:44;1.60;;;1.50;;
65751;SDS011;52486;51.098;13.770;2022-08-21T01:59:11;1.50;;;1.50;;
65751;SDS011;52486;51.098;13.770;2022-08-21T02:01:37;1.77;;;1.67;;
65751;SDS011;52486;51.098;13.770;2022-08-21T02:04:07;1.80;;;1.70;;
65751;SDS011;52486;51.098;13.770;2022-08-21T02:06:33;1.80;;;1.70;;
65751;SDS011;52486;51.098;13.770;2022-08-21T02:09:00;2.58;;;1.90;;
65751;SDS011;52486;51.098;13.770;2022-08-21T02:11:26;1.80;;;1.70;;
65751;SDS011;52486;51.098;13.770;2022-08-21T02:13:52;1.65;;;1.55;;
65751;SDS011;52486;51.098;13.770;2022-08-21T02:16:18;1.70;;;1.60;;
65751;SDS011;52486;51.098;13.770;2022-08-21T02:18:45;1.60;;;1.50;;
65751;SDS011;52486;51.098;13.770;2022-08-21T02:21:11;1.65;;;1.55;;
65751;SDS011;52486;51.098;13.770;2022-08-21T02:23:37;1.73;;;1.63;;
65751;SDS011;52486;51.098;13.770;2022-08-21T02:26:04;1.70;;;1.60;;
65751;SDS011;52486;51.098;13.770;2022-08-21T02:28:32;1.63;;;1.52;;
65751;SDS011;52486;51.098;13.770;2022-08-21T02:30:58;1.80;;;1.70;;
65751;SDS011;52486;51.098;13.770;2022-08-21T02:33:24;1.35;;;1.35;;
65751;SDS011;52486;51.098;13.770;2022-08-21T02:35:51;1.80;;;1.70;;
65751;SDS011;52486;51.098;13.770;2022-08-21T02:38:22;1.70;;;1.60;;
65751;SDS011;52486;51.098;13.770;2022-08-21T02:40:50;1.50;;;1.40;;
65751;SDS011;52486;51.098;13.770;2022-08-21T02:43:16;1.77;;;1.67;;
65751;SDS011;52486;51.098;13.770;2022-08-21T02:45:42;1.85;;;1.75;;
65751;SDS011;52486;51.098;13.770;2022-08-21T02:48:11;1.77;;;1.67;;
65751;SDS011;52486;51.098;13.770;2022-08-21T02:50:40;1.83;;;1.73;;
65751;SDS011;52486;51.098;13.770;2022-08-21T02:53:08;1.70;;;1.60;;
65751;SDS011;52486;51.098;13.770;2022-08-21T02:55:34;1.75;;;1.65;;
65751;SDS011;52486;51.098;13.770;2022-08-21T02:58:02;1.67;;;1.58;;
65751;SDS011;52486;51.098;13.770;2022-08-21T03:00:29;1.70;;;1.60;;
65751;SDS011;52486;51.098;13.770;2022-08-21T03:02:56;1.70;;;1.60;;
65751;SDS011;52486;51.098;13.770;2022-08-21T03:05:22;1.65;;;1.55;;
65751;SDS011;52486;51.098;13.770;2022-08-21T03:07:49;1.70;;;1.60;;
65751;SDS011;52486;51.098;13.770;2022-08-21T03:10:17;1.60;;;1.50;;
65751;SDS011;52486;51.098;13.770;2022-08-21T03:12:44;1.60;;;1.50;;
65751;SDS011;52486;51.098;13.770;2022-08-21T03:15:12;1.67;;;1.58;;
65751;SDS011;52486;51.098;13.770;2022-08-21T03:17:38;1.70;;;1.60;;
65751;SDS011;52486;51.098;13.770;2022-08-21T03:20:04;1.75;;;1.65;;
65751;SDS011;52486;51.098;13.770;2022-08-21T03:22:31;1.80;;;1.70;;
65751;SDS011;52486;51.098;13.770;2022-08-21T03:24:57;1.88;;;1.77;;
65751;SDS011;52486;51.098;13.770;2022-08-21T03:27:24;1.70;;;1.60;;
65751;SDS011;52486;51.098;13.770;2022-08-21T03:29:52;1.80;;;1.70;;
65751;SDS011;52486;51.098;13.770;2022-08-21T03:32:18;1.50;;;1.40;;
65751;SDS011;52486;51.098;13.770;2022-08-21T03:34:44;1.70;;;1.60;;
65751;SDS011;52486;51.098;13.770;2022-08-21T03:37:10;1.60;;;1.50;;
65751;SDS011;52486;51.098;13.770;2022-08-21T03:39:37;1.83;;;1.73;;
65751;SDS011;52486;51.098;13.770;2022-08-21T03:42:03;1.60;;;1.50;;
65751;SDS011;52486;51.098;13.770;2022-08-21T03:44:30;1.60;;;1.50;;
65751;SDS011;52486;51.098;13.770;2022-08-21T03:46:56;1.55;;;1.45;;
65751;SDS011;52486;51.098;13.770;2022-08-21T03:49:23;1.70;;;1.60;;
65751;SDS011;52486;51.098;13.770;2022-08-21T03:51:49;1.60;;;1.50;;
65751;SDS011;52486;51.098;13.770;2022-08-21T03:54:15;1.65;;;1.55;;
65751;SDS011;52486;51.098;13.770;2022-08-21T03:56:41;1.70;;;1.60;;
65751;SDS011;52486;51.098;13.770;2022-08-21T03:59:07;1.67;;;1.58;;
65751;SDS011;52486;51.098;13.770;2022-08-21T04:01:34;1.80;;;1.70;;
65751;SDS011;52486;51.098;13.770;2022-08-21T04:04:00;1.70;;;1.60;;
65751;SDS011;52486;51.098;13.770;2022-08-21T04:06:26;1.50;;;1.45;;
65751;SDS011;52486;51.098;13.770;2022-08-21T04:08:52;1.70;;;1.60;;
65751;SDS011;52486;51.098;13.770;2022-08-21T04:11:19;1.70;;;1.60;;
65751;SDS011;52486;51.098;13.770;2022-08-21T04:13:45;1.73;;;1.60;;
65751;SDS011;52486;51.098;13.770;2022-08-21T04:16:12;1.60;;;1.50;;
65751;SDS011;52486;51.098;13.770;2022-08-21T04:18:38;1.60;;;1.50;;
65751;SDS011;52486;51.098;13.770;2022-08-21T04:21:04;1.70;;;1.60;;
65751;SDS011;52486;51.098;13.770;2022-08-21T04:23:31;1.70;;;1.60;;
65751;SDS011;52486;51.098;13.770;2022-08-21T04:25:57;1.40;;;1.38;;
65751;SDS011;52486;51.098;13.770;2022-08-21T04:28:24;1.60;;;1.50;;
65751;SDS011;52486;51.098;13.770;2022-08-21T04:30:51;1.73;;;1.63;;
65751;SDS011;52486;51.098;13.770;2022-08-21T04:33:17;1.60;;;1.50;;
65751;SDS011;52486;51.098;13.770;2022-08-21T04:35:43;1.70;;;1.60;;
65751;SDS011;52486;51.098;13.770;2022-08-21T04:38:10;1.50;;;1.40;;
65751;SDS011;52486;51.098;13.770;2022-08-21T04:40:36;1.90;;;1.73;;
65751;SDS011;52486;51.098;13.770;2022-08-21T04:43:07;1.50;;;1.40;;
65751;SDS011;52486;51.098;13.770;2022-08-21T04:45:35;1.70;;;1.60;;
65751;SDS011;52486;51.098;13.770;2022-08-21T04:48:03;1.60;;;1.50;;
65751;SDS011;52486;51.098;13.770;2022-08-21T04:50:47;1.80;;;1.70;;
65751;SDS011;52486;51.098;13.770;2022-08-21T04:53:17;1.73;;;1.63;;
65751;SDS011;52486;51.098;13.770;2022-08-21T04:55:43;1.70;;;1.60;;
65751;SDS011;52486;51.098;13.770;2022-08-21T04:58:11;1.42;;;1.40;;
65751;SDS011;52486;51.098;13.770;2022-08-21T05:00:38;1.40;;;1.30;;
65751;SDS011;52486;51.098;13.770;2022-08-21T05:03:04;1.80;;;1.70;;
65751;SDS011;52486;51.098;13.770;2022-08-21T05:05:32;1.80;;;1.70;;
65751;SDS011;52486;51.098;13.770;2022-08-21T05:07:59;1.35;;;1.35;;
65751;SDS011;52486;51.098;13.770;2022-08-21T05:10:26;1.55;;;1.45;;
65751;SDS011;52486;51.098;13.770;2022-08-21T05:12:53;1.60;;;1.50;;
65751;SDS011;52486;51.098;13.770;2022-08-21T05:15:19;1.48;;;1.38;;
65751;SDS011;52486;51.098;13.770;2022-08-21T05:17:45;1.50;;;1.40;;
65751;SDS011;52486;51.098;13.770;2022-08-21T05:20:12;1.60;;;1.50;;
65751;SDS011;52486;51.098;13.770;2022-08-21T05:22:39;1.33;;;1.30;;
65751;SDS011;52486;51.098;13.770;2022-08-21T05:25:05;1.63;;;1.52;;
65751;SDS011;52486;51.098;13.770;2022-08-21T05:27:32;1.50;;;1.40;;
65751;SDS011;52486;51.098;13.770;2022-08-21T05:29:58;1.60;;;1.50;;
65751;SDS011;52486;51.098;13.770;2022-08-21T05:32:24;1.60;;;1.50;;
65751;SDS011;52486;51.098;13.770;2022-08-21T05:34:52;1.45;;;1.42;;
65751;SDS011;52486;51.098;13.770;2022-08-21T05:37:18;1.63;;;1.52;;
65751;SDS011;52486;51.098;13.770;2022-08-21T05:39:45;1.60;;;1.50;;
65751;SDS011;52486;51.098;13.770;2022-08-21T05:42:11;1.45;;;1.40;;
65751;SDS011;52486;51.098;13.770;2022-08-21T05:44:37;1.30;;;1.30;;
65751;SDS011;52486;51.098;13.770;2022-08-21T05:47:04;1.70;;;1.60;;
65751;SDS011;52486;51.098;13.770;2022-08-21T05:49:30;1.50;;;1.40;;
65751;SDS011;52486;51.098;13.770;2022-08-21T05:51:56;1.55;;;1.45;;
65751;SDS011;52486;51.098;13.770;2022-08-21T05:54:22;1.20;;;1.20;;
65751;SDS011;52486;51.098;13.770;2022-08-21T05:56:48;1.60;;;1.50;;
65751;SDS011;52486;51.098;13.770;2022-08-21T05:59:14;1.50;;;1.40;;
65751;SDS011;52486;51.098;13.770;2022-08-21T06:01:40;1.40;;;1.30;;
65751;SDS011;52486;51.098;13.770;2022-08-21T06:04:06;1.40;;;1.40;;
65751;SDS011;52486;51.098;13.770;2022-08-21T06:06:33;1.45;;;1.35;;
65751;SDS011;52486;51.098;13.770;2022-08-21T06:08:59;1.30;;;1.30;;
65751;SDS011;52486;51.098;13.770;2022-08-21T06:11:26;1.58;;;1.48;;
65751;SDS011;52486;51.098;13.770;2022-08-21T06:13:52;1.60;;;1.50;;
65751;SDS011;52486;51.098;13.770;2022-08-21T06:16:18;1.60;;;1.50;;
65751;SDS011;52486;51.098;13.770;2022-08-21T06:18:44;1.70;;;1.60;;
65751;SDS011;52486;51.098;13.770;2022-08-21T06:21:11;1.30;;;1.30;;
65751;SDS011;52486;51.098;13.770;2022-08-21T06:23:38;1.40;;;1.30;;
65751;SDS011;52486;51.098;13.770;2022-08-21T06:26:05;1.50;;;1.40;;
65751;SDS011;52486;51.098;13.770;2022-08-21T06:28:32;1.52;;;1.42;;
65751;SDS011;52486;51.098;13.770;2022-08-21T06:30:58;1.25;;;1.25;;
65751;SDS011;52486;51.098;13.770;2022-08-21T06:33:24;1.48;;;1.38;;
65751;SDS011;52486;51.098;13.770;2022-08-21T06:35:50;1.42;;;1.40;;
65751;SDS011;52486;51.098;13.770;2022-08-21T06:38:16;1.58;;;1.48;;
65751;SDS011;52486;51.098;13.770;2022-08-21T06:40:43;1.58;;;1.48;;
65751;SDS011;52486;51.098;13.770;2022-08-21T06:43:10;1.55;;;1.45;;
65751;SDS011;52486;51.098;13.770;2022-08-21T06:45:37;1.50;;;1.40;;
65751;SDS011;52486;51.098;13.770;2022-08-21T06:48:03;1.60;;;1.50;;
65751;SDS011;52486;51.098;13.770;2022-08-21T06:50:30;1.50;;;1.40;;
65751;SDS011;52486;51.098;13.770;2022-08-21T06:53:00;1.45;;;1.25;;
65751;SDS011;52486;51.098;13.770;2022-08-21T06:55:26;1.48;;;1.38;;
65751;SDS011;52486;51.098;13.770;2022-08-21T06:57:52;1.50;;;1.40;;
65751;SDS011;52486;51.098;13.770;2022-08-21T07:00:18;1.40;;;1.40;;
65751;SDS011;52486;51.098;13.770;2022-08-21T07:02:45;1.40;;;1.35;;
65751;SDS011;52486;51.098;13.770;2022-08-21T07:05:11;1.63;;;1.52;;
65751;SDS011;52486;51.098;13.770;2022-08-21T07:07:37;1.60;;;1.50;;
65751;SDS011;52486;51.098;13.770;2022-08-21T07:10:03;1.58;;;1.48;;
65751;SDS011;52486;51.098;13.770;2022-08-21T07:12:29;1.60;;;1.50;;
65751;SDS011;52486;51.098;13.770;2022-08-21T07:14:56;1.25;;;1.20;;
65751;SDS011;52486;51.098;13.770;2022-08-21T07:17:23;1.60;;;1.50;;
65751;SDS011;52486;51.098;13.770;2022-08-21T07:19:49;1.35;;;1.30;;
65751;SDS011;52486;51.098;13.770;2022-08-21T07:22:17;1.60;;;1.50;;
65751;SDS011;52486;51.098;13.770;2022-08-21T07:24:44;1.40;;;1.30;;
65751;SDS011;52486;51.098;13.770;2022-08-21T07:27:10;1.30;;;1.30;;
65751;SDS011;52486;51.098;13.770;2022-08-21T07:29:36;1.50;;;1.40;;
65751;SDS011;52486;51.098;13.770;2022-08-21T07:32:02;1.70;;;1.60;;
65751;SDS011;52486;51.098;13.770;2022-08-21T07:34:29;1.50;;;1.40;;
65751;SDS011;52486;51.098;13.770;2022-08-21T07:36:55;2.08;;;1.45;;
65751;SDS011;52486;51.098;13.770;2022-08-21T07:39:21;1.50;;;1.40;;
65751;SDS011;52486;51.098;13.770;2022-08-21T07:41:47;1.50;;;1.40;;
65751;SDS011;52486;51.098;13.770;2022-08-21T07:44:13;1.67;;;1.58;;
65751;SDS011;52486;51.098;13.770;2022-08-21T07:46:39;1.30;;;1.30;;
65751;SDS011;52486;51.098;13.770;2022-08-21T07:49:05;1.40;;;1.30;;
65751;SDS011;52486;51.098;13.770;2022-08-21T07:51:31;1.58;;;1.48;;
65751;SDS011;52486;51.098;13.770;2022-08-21T07:53:58;1.40;;;1.30;;
65751;SDS011;52486;51.098;13.770;2022-08-21T07:56:24;1.25;;;1.23;;
65751;SDS011;52486;51.098;13.770;2022-08-21T07:58:51;1.50;;;1.40;;
65751;SDS011;52486;51.098;13.770;2022-08-21T08:01:17;1.65;;;1.55;;
65751;SDS011;52486;51.098;13.770;2022-08-21T08:03:43;1.58;;;1.48;;
65751;SDS011;52486;51.098;13.770;2022-08-21T08:06:10;1.60;;;1.50;;
65751;SDS011;52486;51.098;13.770;2022-08-21T08:08:42;1.50;;;1.40;;
65751;SDS011;52486;51.098;13.770;2022-08-21T08:11:09;1.55;;;1.45;;
65751;SDS011;52486;51.098;13.770;2022-08-21T08:16:29;1.48;;;1.40;;
65751;SDS011;52486;51.098;13.770;2022-08-21T08:18:55;1.40;;;1.30;;
65751;SDS011;52486;51.098;13.770;2022-08-21T08:21:21;1.42;;;1.35;;
65751;SDS011;52486;51.098;13.770;2022-08-21T08:23:48;1.67;;;1.42;;
65751;SDS011;52486;51.098;13.770;2022-08-21T08:26:14;1.55;;;1.45;;
65751;SDS011;52486;51.098;13.770;2022-08-21T08:28:43;1.50;;;1.40;;
65751;SDS011;52486;51.098;13.770;2022-08-21T08:31:09;1.55;;;1.45;;
65751;SDS011;52486;51.098;13.770;2022-08-21T08:33:35;1.20;;;1.20;;
65751;SDS011;52486;51.098;13.770;2022-08-21T08:36:01;1.75;;;1.65;;
65751;SDS011;52486;51.098;13.770;2022-08-21T08:38:28;1.55;;;1.40;;
65751;SDS011;52486;51.098;13.770;2022-08-21T08:43:30;1.23;;;1.23;;
65751;SDS011;52486;51.098;13.770;2022-08-21T08:45:57;1.20;;;1.20;;
65751;SDS011;52486;51.098;13.770;2022-08-21T08:48:31;1.25;;;1.25;;
65751;SDS011;52486;51.098;13.770;2022-08-21T08:51:00;1.33;;;1.30;;
65751;SDS011;52486;51.098;13.770;2022-08-21T08:53:28;1.40;;;1.33;;
65751;SDS011;52486;51.098;13.770;2022-08-21T08:55:55;1.27;;;1.27;;
65751;SDS011;52486;51.098;13.770;2022-08-21T08:58:25;1.35;;;1.33;;
65751;SDS011;52486;51.098;13.770;2022-08-21T09:00:53;1.50;;;1.40;;
65751;SDS011;52486;51.098;13.770;2022-08-21T09:03:20;1.27;;;1.27;;
65751;SDS011;52486;51.098;13.770;2022-08-21T09:05:49;1.30;;;1.25;;
65751;SDS011;52486;51.098;13.770;2022-08-21T09:13:34;1.20;;;1.20;;
65751;SDS011;52486;51.098;13.770;2022-08-21T09:16:09;1.27;;;1.27;;
65751;SDS011;52486;51.098;13.770;2022-08-21T09:26:23;1.30;;;1.25;;
65751;SDS011;52486;51.098;13.770;2022-08-21T09:28:54;1.30;;;1.30;;
65751;SDS011;52486;51.098;13.770;2022-08-21T09:31:22;1.13;;;1.13;;
65751;SDS011;52486;51.098;13.770;2022-08-21T09:33:49;1.27;;;1.27;;
65751;SDS011;52486;51.098;13.770;2022-08-21T09:39:00;1.40;;;1.30;;
65751;SDS011;52486;51.098;13.770;2022-08-21T09:41:27;1.17;;;1.17;;
65751;SDS011;52486;51.098;13.770;2022-08-21T09:43:54;0.93;;;0.93;;
65751;SDS011;52486;51.098;13.770;2022-08-21T09:46:21;1.38;;;1.27;;
65751;SDS011;52486;51.098;13.770;2022-08-21T09:48:48;1.40;;;1.30;;
65751;SDS011;52486;51.098;13.770;2022-08-21T09:51:19;1.20;;;1.20;;
65751;SDS011;52486;51.098;13.770;2022-08-21T09:53:47;1.40;;;1.30;;
65751;SDS011;52486;51.098;13.770;2022-08-21T09:56:19;1.33;;;1.23;;
65751;SDS011;52486;51.098;13.770;2022-08-21T09:59:12;1.70;;;1.25;;
65751;SDS011;52486;51.098;13.770;2022-08-21T10:01:42;1.20;;;1.10;;
65751;SDS011;52486;51.098;13.770;2022-08-21T10:06:35;1.20;;;1.20;;
65751;SDS011;52486;51.098;13.770;2022-08-21T10:11:30;1.25;;;1.17;;
65751;SDS011;52486;51.098;13.770;2022-08-21T10:16:26;1.48;;;1.38;;
65751;SDS011;52486;51.098;13.770;2022-08-21T10:21:37;1.10;;;1.10;;
65751;SDS011;52486;51.098;13.770;2022-08-21T10:27:05;1.35;;;1.25;;
65751;SDS011;52486;51.098;13.770;2022-08-21T10:35:06;1.20;;;1.10;;
65751;SDS011;52486;51.098;13.770;2022-08-21T10:45:08;1.20;;;1.20;;
65751;SDS011;52486;51.098;13.770;2022-08-21T10:56:02;1.10;;;1.10;;
65751;SDS011;52486;51.098;13.770;2022-08-21T10:58:24;1.38;;;1.27;;
65751;SDS011;52486;51.098;13.770;2022-08-21T11:00:52;1.20;;;1.20;;
65751;SDS011;52486;51.098;13.770;2022-08-21T11:03:21;1.00;;;1.00;;
65751;SDS011;52486;51.098;13.770;2022-08-21T11:05:51;1.15;;;1.15;;
65751;SDS011;52486;51.098;13.770;2022-08-21T11:08:31;1.30;;;1.20;;
65751;SDS011;52486;51.098;13.770;2022-08-21T11:13:43;1.40;;;1.30;;
65751;SDS011;52486;51.098;13.770;2022-08-21T11:16:31;1.00;;;1.00;;
65751;SDS011;52486;51.098;13.770;2022-08-21T11:19:05;0.95;;;0.95;;
65751;SDS011;52486;51.098;13.770;2022-08-21T11:24:12;1.00;;;1.00;;
65751;SDS011;52486;51.098;13.770;2022-08-21T11:26:45;1.20;;;1.10;;
65751;SDS011;52486;51.098;13.770;2022-08-21T11:29:16;1.00;;;1.00;;
65751;SDS011;52486;51.098;13.770;2022-08-21T11:34:15;1.20;;;1.20;;
65751;SDS011;52486;51.098;13.770;2022-08-21T11:37:03;1.33;;;1.23;;
65751;SDS011;52486;51.098;13.770;2022-08-21T11:42:40;1.13;;;1.13;;
65751;SDS011;52486;51.098;13.770;2022-08-21T11:47:15;1.20;;;1.10;;
65751;SDS011;52486;51.098;13.770;2022-08-21T11:54:40;1.10;;;1.10;;
65751;SDS011;52486;51.098;13.770;2022-08-21T11:57:17;1.00;;;1.00;;
65751;SDS011;52486;51.098;13.770;2022-08-21T11:59:47;1.10;;;1.08;;
65751;SDS011;52486;51.098;13.770;2022-08-21T12:02:24;1.05;;;1.05;;
65751;SDS011;52486;51.098;13.770;2022-08-21T12:04:59;1.05;;;1.05;;
65751;SDS011;52486;51.098;13.770;2022-08-21T12:07:30;1.30;;;1.20;;
65751;SDS011;52486;51.098;13.770;2022-08-21T12:09:57;1.27;;;1.27;;
65751;SDS011;52486;51.098;13.770;2022-08-21T12:12:28;0.98;;;0.98;;
65751;SDS011;52486;51.098;13.770;2022-08-21T12:17:40;1.20;;;1.10;;
65751;SDS011;52486;51.098;13.770;2022-08-21T12:20:17;0.90;;;0.90;;
65751;SDS011;52486;51.098;13.770;2022-08-21T12:22:53;1.08;;;1.05;;
65751;SDS011;52486;51.098;13.770;2022-08-21T12:25:20;1.20;;;1.10;;
65751;SDS011;52486;51.098;13.770;2022-08-21T12:27:47;1.27;;;1.17;;
65751;SDS011;52486;51.098;13.770;2022-08-21T12:30:34;1.10;;;1.10;;
65751;SDS011;52486;51.098;13.770;2022-08-21T12:33:02;1.17;;;1.10;;
65751;SDS011;52486;51.098;13.770;2022-08-21T12:35:38;1.10;;;1.00;;
65751;SDS011;52486;51.098;13.770;2022-08-21T12:43:18;0.90;;;0.90;;
65751;SDS011;52486;51.098;13.770;2022-08-21T12:45:47;1.17;;;1.10;;
65751;SDS011;52486;51.098;13.770;2022-08-21T12:48:22;0.95;;;0.95;;
65751;SDS011;52486;51.098;13.770;2022-08-21T12:50:51;0.90;;;0.90;;
65751;SDS011;52486;51.098;13.770;2022-08-21T12:55:47;0.90;;;0.90;;
65751;SDS011;52486;51.098;13.770;2022-08-21T12:58:20;1.17;;;1.00;;
65751;SDS011;52486;51.098;13.770;2022-08-21T13:00:57;1.00;;;1.00;;
65751;SDS011;52486;51.098;13.770;2022-08-21T13:03:24;2.05;;;1.02;;
65751;SDS011;52486;51.098;13.770;2022-08-21T13:05:50;0.73;;;0.73;;
65751;SDS011;52486;51.098;13.770;2022-08-21T13:08:18;0.90;;;0.90;;
65751;SDS011;52486;51.098;13.770;2022-08-21T13:10:44;1.02;;;0.90;;
65751;SDS011;52486;51.098;13.770;2022-08-21T13:13:17;1.33;;;0.98;;
65751;SDS011;52486;51.098;13.770;2022-08-21T13:15:45;0.90;;;0.90;;
65751;SDS011;52486;51.098;13.770;2022-08-21T13:18:19;1.35;;;1.25;;
65751;SDS011;52486;51.098;13.770;2022-08-21T13:20:45;2.55;;;1.00;;
65751;SDS011;52486;51.098;13.770;2022-08-21T13:23:28;0.90;;;0.90;;
65751;SDS011;52486;51.098;13.770;2022-08-21T13:25:55;0.93;;;0.93;;
65751;SDS011;52486;51.098;13.770;2022-08-21T13:28:21;0.70;;;0.70;;
65751;SDS011;52486;51.098;13.770;2022-08-21T13:30:49;0.98;;;0.98;;
65751;SDS011;52486;51.098;13.770;2022-08-21T13:33:16;1.08;;;0.90;;
65751;SDS011;52486;51.098;13.770;2022-08-21T13:38:13;0.90;;;0.90;;
65751;SDS011;52486;51.098;13.770;2022-08-21T13:43:12;0.98;;;0.90;;
65751;SDS011;52486;51.098;13.770;2022-08-21T13:45:43;0.82;;;0.82;;
65751;SDS011;52486;51.098;13.770;2022-08-21T13:50:36;0.80;;;0.80;;
65751;SDS011;52486;51.098;13.770;2022-08-21T13:53:04;0.80;;;0.80;;
65751;SDS011;52486;51.098;13.770;2022-08-21T13:55:35;0.90;;;0.90;;
65751;SDS011;52486;51.098;13.770;2022-08-21T13:58:02;1.05;;;0.82;;
65751;SDS011;52486;51.098;13.770;2022-08-21T14:00:30;0.90;;;0.90;;
65751;SDS011;52486;51.098;13.770;2022-08-21T14:03:02;0.90;;;0.90;;
65751;SDS011;52486;51.098;13.770;2022-08-21T14:05:30;0.80;;;0.80;;
65751;SDS011;52486;51.098;13.770;2022-08-21T14:10:29;0.70;;;0.70;;
65751;SDS011;52486;51.098;13.770;2022-08-21T14:13:03;0.75;;;0.75;;
65751;SDS011;52486;51.098;13.770;2022-08-21T14:15:30;0.80;;;0.80;;
65751;SDS011;52486;51.098;13.770;2022-08-21T14:20:42;0.80;;;0.80;;
65751;SDS011;52486;51.098;13.770;2022-08-21T14:23:08;0.88;;;0.88;;
65751;SDS011;52486;51.098;13.770;2022-08-21T14:25:44;0.70;;;0.70;;
65751;SDS011;52486;51.098;13.770;2022-08-21T14:28:13;1.10;;;0.80;;
65751;SDS011;52486;51.098;13.770;2022-08-21T14:30:41;1.00;;;1.00;;
65751;SDS011;52486;51.098;13.770;2022-08-21T14:33:09;0.90;;;0.90;;
65751;SDS011;52486;51.098;13.770;2022-08-21T14:35:36;0.90;;;0.90;;
65751;SDS011;52486;51.098;13.770;2022-08-21T14:38:02;0.80;;;0.80;;
65751;SDS011;52486;51.098;13.770;2022-08-21T14:40:28;0.90;;;0.90;;
65751;SDS011;52486;51.098;13.770;2022-08-21T14:42:54;0.77;;;0.77;;
65751;SDS011;52486;51.098;13.770;2022-08-21T14:45:27;0.80;;;0.80;;
65751;SDS011;52486;51.098;13.770;2022-08-21T14:47:54;0.68;;;0.68;;
65751;SDS011;52486;51.098;13.770;2022-08-21T14:50:20;0.75;;;0.75;;
65751;SDS011;52486;51.098;13.770;2022-08-21T14:52:47;0.70;;;0.70;;
65751;SDS011;52486;51.098;13.770;2022-08-21T14:55:13;1.08;;;1.00;;
65751;SDS011;52486;51.098;13.770;2022-08-21T14:57:40;0.90;;;0.90;;
65751;SDS011;52486;51.098;13.770;2022-08-21T15:00:10;0.80;;;0.80;;
65751;SDS011;52486;51.098;13.770;2022-08-21T15:02:37;0.80;;;0.80;;
65751;SDS011;52486;51.098;13.770;2022-08-21T15:05:03;0.80;;;0.80;;
65751;SDS011;52486;51.098;13.770;2022-08-21T15:07:29;0.90;;;0.90;;
65751;SDS011;52486;51.098;13.770;2022-08-21T15:09:55;0.82;;;0.82;;
65751;SDS011;52486;51.098;13.770;2022-08-21T15:12:22;0.70;;;0.70;;
65751;SDS011;52486;51.098;13.770;2022-08-21T15:14:48;0.70;;;0.70;;
65751;SDS011;52486;51.098;13.770;2022-08-21T15:17:14;1.08;;;1.00;;
65751;SDS011;52486;51.098;13.770;2022-08-21T15:19:40;0.88;;;0.88;;
65751;SDS011;52486;51.098;13.770;2022-08-21T15:22:07;0.70;;;0.70;;
65751;SDS011;52486;51.098;13.770;2022-08-21T15:24:33;0.85;;;0.85;;
65751;SDS011;52486;51.098;13.770;2022-08-21T15:26:59;0.75;;;0.75;;
65751;SDS011;52486;51.098;13.770;2022-08-21T15:29:26;0.82;;;0.80;;
65751;SDS011;52486;51.098;13.770;2022-08-21T15:34:18;0.75;;;0.75;;
65751;SDS011;52486;51.098;13.770;2022-08-21T15:36:44;0.85;;;0.85;;
65751;SDS011;52486;51.098;13.770;2022-08-21T15:39:10;0.80;;;0.80;;
65751;SDS011;52486;51.098;13.770;2022-08-21T15:41:37;0.80;;;0.80;;
65751;SDS011;52486;51.098;13.770;2022-08-21T15:44:03;0.85;;;0.85;;
65751;SDS011;52486;51.098;13.770;2022-08-21T15:46:29;0.60;;;0.60;;
65751;SDS011;52486;51.098;13.770;2022-08-21T15:48:55;0.70;;;0.70;;
65751;SDS011;52486;51.098;13.770;2022-08-21T15:51:21;0.77;;;0.77;;
65751;SDS011;52486;51.098;13.770;2022-08-21T15:53:47;0.80;;;0.80;;
65751;SDS011;52486;51.098;13.770;2022-08-21T15:56:23;0.82;;;0.65;;
65751;SDS011;52486;51.098;13.770;2022-08-21T15:58:50;1.85;;;0.80;;
65751;SDS011;52486;51.098;13.770;2022-08-21T16:01:18;0.80;;;0.80;;
65751;SDS011;52486;51.098;13.770;2022-08-21T16:03:45;0.90;;;0.80;;
65751;SDS011;52486;51.098;13.770;2022-08-21T16:06:13;0.88;;;0.80;;
65751;SDS011;52486;51.098;13.770;2022-08-21T16:08:39;0.70;;;0.70;;
65751;SDS011;52486;51.098;13.770;2022-08-21T16:11:05;0.60;;;0.60;;
65751;SDS011;52486;51.098;13.770;2022-08-21T16:13:36;0.60;;;0.60;;
65751;SDS011;52486;51.098;13.770;2022-08-21T16:16:03;0.70;;;0.70;;